Duckwater, Nevada Weather observations

Data are for 10 minute period ending at time listed.
 Day   Time   Solar   Ave.   Ave.  Ave.  Vector  Max.   Baro.   Total    
  of    of     Rad.   Air    Rel.  Wind   Wind   Wind  Press.  Precip.   
Year   Day            Temp.  Hum.  Speed  Dir.   Gust                    
2014   (PST)   w/m2    F      %     mph   deg.    mph    mb.     in.    
-----------------------------------------------------------------------
 297    5:10      0   35.6    66    0.5    50     1.2   999.0   0.00  
 297    5:20      0   37.1    63    0.9    45     3.3   999.0   0.00  
 297    5:30      0   38.8    58    1.2     8     3.4   999.0   0.00  
 297    5:40      0   38.9    56    0.5     7     2.8   999.0   0.00  
 297    5:50      2   39.4    57    2.7    15     4.2   999.0   0.00  
 297    6:00      4   38.9    56    1.7   210     3.4   999.0   0.00  
 297    6:10      4   34.9    64    0.8   188     3.3   999.0   0.00  
 297    6:20      8   32.6    68    0.3   188     1.2   999.0   0.00  
 297    6:30     35   32.7    69    0.4   190     1.4   999.0   0.00  
 297    6:40     71   35.7    63    0.9   187     1.9   999.0   0.00  
 297    6:50    107   40.0    56    0.4   190     0.9   999.0   0.00  
 297    7:00    138   41.5    53    0.4   192     1.5   999.0   0.00  
 297    7:10    167   42.6    54    1.3   226     3.9   999.0   0.00  
 297    7:20    198   44.9    50    1.0   338     3.3   999.0   0.00  
 297    7:30    228   46.7    47    0.6   334     1.8   999.0   0.00  
 297    7:40    259   48.6    47    3.0   337     4.7   999.0   0.00  
 297    7:50    289   50.8    43    2.4   342     3.8   999.0   0.00  
 297    8:00    320   53.0    40    2.3   330     3.4   999.0   0.00  
 297    8:10    350   54.7    38    2.7   339     4.3   999.0   0.00  
 297    8:20    379   56.5    33    1.8   358     4.2   999.0   0.00  
 297    8:30    407   58.4    30    0.7   329     3.0   999.0   0.00  
 297    8:40    434   60.2    28    1.2   175     3.2   999.0   0.00  
 297    8:50    459   61.1    28    3.4   160     6.7   999.0   0.00  
 297    9:00    483   62.0    28    4.0   158     7.1   999.0   0.00  
 297    9:10    505   63.2    28    4.4   154     7.1   999.0   0.00  
 297    9:20    527   64.1    27    5.6   144    11.1   999.0   0.00  
 297    9:30    548   64.7    26    7.4   147    11.2   999.0   0.00  
 297    9:40    567   65.7    26    7.7   133    12.4   999.0   0.00  
 297    9:50    584   67.1    24    9.5   147    14.3   999.0   0.00  
 297   10:00    601   67.3    23   11.1   146    15.4   999.0   0.00  
 297   10:10    616   67.3    23   10.4   151    14.7   999.0   0.00  
 297   10:20    630   68.4    22   10.6   152    16.5   999.0   0.00  
 297   10:30    639   68.8    22    9.4   145    15.9   999.0   0.00  
 297   10:40    649   69.3    22   11.3   148    17.2   999.0   0.00  
 297   10:50    657   69.8    21   11.7   147    18.5   999.0   0.00  
 297   11:00    663   70.1    21   13.1   150    20.6   999.0   0.00  
 297   11:10    668   71.0    20   12.0   152    19.4   999.0   0.00  
 297   11:20    671   70.8    20   13.7   151    21.0   999.0   0.00  
 297   11:30    673   71.0    20   13.2   144    20.5   999.0   0.00  
 297   11:40    673   71.2    20   13.1   143    17.8   999.0   0.00  
 297   11:50    669   71.9    19   14.2   150    19.0   999.0   0.00  
 297   12:00    665   72.0    19   14.4   146    22.2   999.0   0.00  
 297   12:10    659   72.9    18   13.3   144    19.4   999.0   0.00  
 297   12:20    651   73.6    18   14.9   149    21.3   999.0   0.00  
 297   12:30    642   74.1    17   16.2   154    23.9   999.0   0.00  
 297   12:40    631   73.9    17   14.9   157    24.7   999.0   0.00  
 297   12:50    619   74.5    17   14.3   158    20.5   999.0   0.00  
 297   13:00    604   73.8    17   13.9   145    19.8   999.0   0.00  
 297   13:10    588   73.7    17   13.9   142    19.7   999.0   0.00  
 297   13:20    570   74.2    17   12.9   151    19.4   999.0   0.00  
 297   13:30    550   74.7    17   14.1   152    21.0   999.0   0.00  
 297   13:40    530   74.8    17   14.4   144    22.6   999.0   0.00  
 297   13:50    509   75.1    16   15.2   153    23.7   999.0   0.00  
 297   14:00    485   75.7    16   14.4   151    20.6   999.0   0.00  
 297   14:10    462   76.0    15   13.4   152    18.3   999.0   0.00  
 297   14:20    436   75.9    15   14.1   161    20.8   999.0   0.00  
 297   14:30    408   75.8    15   14.5   160    20.7   999.0   0.00  
 297   14:40    380   75.6    16   14.0   158    20.2   999.0   0.00  
 297   14:50    352   75.5    15   13.7   154    21.1   999.0   0.00  
 297   15:00    324   75.7    16   13.2   158    18.9   999.0   0.00  
 297   15:10    293   75.1    16   13.5   155    19.1   999.0   0.00  
 297   15:20    262   75.1    16   13.2   158    20.1   999.0   0.00  
 297   15:30    231   75.0    17   12.8   158    17.8   999.0   0.00  
 297   15:40    201   74.7    16   12.2   153    16.6   999.0   0.00  
 297   15:50    171   74.4    17   11.9   155    17.0   999.0   0.00  
 297   16:00    140   74.2    17    9.9   157    14.4   999.0   0.00  
 297   16:10    108   73.9    17    7.8   155    11.2   999.0   0.00  
 297   16:20     73   73.5    18    5.9   160     9.1   999.0   0.00  
 297   16:30     41   72.2    18    5.9   159    10.9   999.0   0.00  
 297   16:40      8   69.3    20    4.8   158     7.4   999.0   0.00  
 297   16:50      7   66.7    22    4.1   169     6.1   999.0   0.00  
 297   17:00      4   64.8    24    2.6   174     3.8   999.0   0.00  
 297   17:10      0   63.3    24    2.1   140     3.1   999.0   0.00  
 297   17:20      0   62.9    24    1.4   152     2.1   999.0   0.00  
 297   17:30      0   62.3    24    3.1   134     4.9   999.0   0.00  
 297   17:40      0   61.5    25    3.6   138     5.3   999.0   0.00  
 297   17:50      0   59.8    26    1.5   156     3.4   999.0   0.00  
 297   18:00      0   60.6    26    3.9   122     5.8   999.0   0.00  
 297   18:10      0   62.2    24    5.1   120     9.0   999.0   0.00  
 297   18:20      0   63.6    24    6.6   119     9.8   999.0   0.00  
 297   18:30      0   63.3    24    6.6   113    10.2   999.0   0.00  
 297   18:40      0   63.5    25    7.1   107     9.6   999.0   0.00  
 297   18:50      0   63.4    24    7.3   111    10.3   999.0   0.00  
 297   19:00      0   62.7    24    6.4   123     9.6   999.0   0.00  
 297   19:10      0   62.4    25    7.0   131     9.4   999.0   0.00  
 297   19:20      0   62.2    25    8.2   129    12.1   999.0   0.00  
 297   19:30      0   62.2    25    8.2   128    12.2   999.0   0.00  
 297   19:40      0   62.5    24    7.8   138    11.9   999.0   0.00  
 297   19:50      0   61.2    26    5.1   140     8.2   999.0   0.00  
 297   20:00      0   60.0    27    5.3   134     6.9   999.0   0.00  
 297   20:10      0   60.0    26    4.1   141     6.6   999.0   0.00  
 297   20:20      0   59.8    27    2.6   135     3.9   999.0   0.00  
 297   20:30      0   59.3    27    2.0   118     3.9   999.0   0.00  
 297   20:40      0   58.3    28    4.6    89     6.4   999.0   0.00  
 297   20:50      0   57.8    29    4.8   104     6.1   999.0   0.00  
 297   21:00      0   57.1    29    3.7   103     5.4   999.0   0.00  
 297   21:10      0   57.4    29    5.3   124     7.9   999.0   0.00  
 297   21:20      0   57.9    29    5.7   134     8.1   999.0   0.00  
 297   21:30      0   56.6    30    5.4   136     7.7   999.0   0.00  
 297   21:40      0   56.1    31    6.2   135     7.7   999.0   0.00  
 297   21:50      0   56.6    30    5.2   133     7.2   999.0   0.00  
 297   22:00      0   57.2    30    5.3   123     7.1   999.0   0.00  
 297   22:10      0   57.7    29    6.3   126     8.4   999.0   0.00  
 297   22:20      0   58.0    29    5.9   126     8.0   999.0   0.00  
 297   22:30      0   58.6    29    6.2   118     8.6   999.0   0.00  
 297   22:40      0   58.5    29    6.5   112     9.0   999.0   0.00  
 297   22:50      0   57.4    30    5.9   132     9.0   999.0   0.00  
 297   23:00      0   54.0    33    4.5   142     7.7   999.0   0.00  
 297   23:10      0   54.5    33    6.2   126     8.8   999.0   0.00  
 297   23:20      0   55.3    32    4.5   130     6.9   999.0   0.00  
 297   23:30      0   55.0    33    4.9   137     6.9   999.0   0.00  
 297   23:40      0   54.5    33    4.2   129     5.3   999.0   0.00  
 297   23:50      0   54.5    33    4.6   125     5.8   999.0   0.00  
 298    0:00      0   55.0    33    4.1   124     5.3   999.0   0.00  
 298    0:10      0   55.1    33    3.1   114     4.8   999.0   0.00  
 298    0:20      0   53.5    35    3.7    63     5.0   999.0   0.00  
 298    0:30      0   50.3    39    4.9    66     6.3   999.0   0.00  
 298    0:40      0   48.7    42    4.7    61     5.8   999.0   0.00  
 298    0:50      0   48.3    42    4.9    63     6.8   999.0   0.00  
 298    1:00      0   48.2    42    4.7    62     5.9   999.0   0.00  
 298    1:10      0   48.6    42    4.2    56     5.2   999.0   0.00  
 298    1:20      0   50.0    40    3.8    76     5.3   999.0   0.00  
 298    1:30      0   50.7    40    2.3    77     3.9   999.0   0.00  
 298    1:40      0   50.0    43    2.2   344     5.9   999.0   0.00  
 298    1:50      0   46.1    50    3.2   305     6.9   999.0   0.00  
 298    2:00      0   49.4    43    2.6   260     5.0   999.0   0.00  
 298    2:10      0   48.8    44    1.5   269     3.2   999.0   0.00  
 298    2:20      0   48.5    45    0.6   247     2.0   999.0   0.00  
 298    2:30      0   47.5    47    2.9   333     4.2   999.0   0.00  
 298    2:40      0   46.7    49    3.4   345     5.3   999.0   0.00  
 298    2:50      0   45.7    50    2.9    40     4.8   999.0   0.00  
 298    3:00      0   44.9    52    2.6    41     3.7   999.0   0.00  
 298    3:10      0   44.8    53    2.8    37     3.4   999.0   0.00  
 298    3:20      0   44.1    53    3.0    36     3.9   999.0   0.00  
 298    3:30      0   44.3    54    4.5    14     7.2   999.0   0.00  
 298    3:40      0   44.2    53    1.7    36     4.3   999.0   0.00  
 298    3:50      0   44.5    53    1.6   353     3.3   999.0   0.00  
 298    4:00      0   41.3    58    1.2   319     2.7   999.0   0.00  
 298    4:10      0   42.2    57    2.5    50     5.2   999.0   0.00  
 298    4:20      0   43.3    55    1.5   352     3.7   999.0   0.00  
 298    4:30      0   44.6    55    3.2    66     4.9   999.0   0.00  
 298    4:40      0   41.5    57    2.9   224     6.7   999.0   0.00  
 298    4:50      0   35.3    70    2.4   304     4.7   999.0   0.00  
 298    5:00      0   37.2    68    0.6   328     3.1   999.0   0.00  

Return to Duckwater graphs page.


Western Regional Climate Center,wrcc@dri.edu